Terminal Aerodrome Forecast
Issued by NWS

Home | Current Version | Previous Version | Text Only | Print | Product List | Glossary On
Versions: 1 2 3 4 5 6 7 8 9 10 11 12 13 14 15
000
FTUS42 KTAE 252326
TAFVLD
TAF
KVLD 252326Z 2600/2624 24006KT P6SM BKN040
      TEMPO 2600/2603 VRB15G25KT 3SM TSRA BKN015CB
     FM260600 23003KT 6SM BR BKN015
     FM260900 20003KT 6SM BR BKN007
     FM261400 24006KT P6SM SCT015
     FM261600 27008KT P6SM SCT040=

USA.gov is the U.S. government's official web portal to all federal, state and local government web resources and services.